Sant Julià de Vilatorta





Hora UTC 21:10
Temperatura -0.6 ºC
Humitat 98.0 %
Pressió 999.6 hPa
Pluja 0.0 mm
Velocitat vent 3.5 km/h
Direcció vent SSE
Radiació solar 0.0 W/m²

Dades diàries 2021-11-27



Hora UTC (hivern +1h; estiu +2h)
Temperatura (ºC) Humitat (%) Pressió (hPa) Velocitat vent (km/h) Precipitació (mm) Radiació solar (W/m²)
Hora UTC Aire Humitat Pressió Vel. Dir. Vel. Max Dir. Intent. màx 5 min. Rad. Sol.
00:05 3.4 94.7 1001.0 1.4 N 1.4 N 0.0 0.0
00:10 3.4 94.5 1000.9 2.6 W 6.2 SW 0.0 0.0
00:15 3.4 94.1 1000.9 3.7 WSW 8.9 W 0.0 0.0
00:20 3.4 93.6 1000.7 2.0 ESE 4.4 SW 0.0 0.0
00:25 3.4 93.1 1000.6 1.5 WNW 3.3 NNW 0.0 0.0
00:30 3.4 93.0 1000.5 1.4 WSW 2.4 SW 0.0 0.0
00:35 3.4 92.9 1000.5 1.8 NW 4.4 WNW 0.0 0.0
00:40 3.4 92.9 1000.5 3.8 NNW 6.2 NNW 0.0 0.0
00:45 3.2 92.9 1000.5 3.6 NW 9.1 NW 0.0 0.0
00:50 3.1 92.9 1000.5 2.0 W 6.1 NW 0.0 0.0
00:55 2.9 93.0 1000.5 2.7 W 5.0 WNW 0.0 0.0
01:00 2.7 93.5 1000.4 2.0 SSW 4.9 SSW 0.0 0.0
01:05 2.6 94.0 1000.2 1.0 WSW 3.0 SSW 0.0 0.0
01:10 2.4 94.0 1000.2 1.0 NNW 1.6 NW 0.0 0.0
01:15 2.1 94.1 1000.3 1.8 WSW 3.5 WSW 0.0 0.0
01:20 2.0 94.8 1000.2 1.0 S 2.4 SSW 0.0 0.0
01:25 1.8 95.1 1000.2 1.3 SW 2.8 S 0.0 0.0
01:30 1.7 95.5 1000.1 2.4 SSE 3.7 SSE 0.0 0.0
01:35 1.6 95.8 1000.0 2.0 ESE 3.6 ESE 0.0 0.0
01:40 1.3 96.1 1000.0 1.7 SE 2.6 S 0.0 0.0
01:45 1.1 96.3 999.9 3.7 ENE 4.8 NE 0.0 0.0
01:50 1.0 96.7 999.9 2.6 ESE 4.9 E 0.0 0.0
01:55 0.9 97.1 999.9 3.6 SSE 5.5 SE 0.0 0.0
02:00 0.9 97.4 999.9 1.8 E 4.2 E 0.0 0.0
02:05 0.8 97.5 999.8 1.2 SE 2.6 SSE 0.0 0.0
02:10 0.6 97.6 999.8 1.9 SSE 4.4 SW 0.0 0.0
02:15 0.4 97.7 999.7 1.4 SSW 3.5 WNW 0.0 0.0
02:20 0.3 97.8 999.7 1.9 NW 5.8 WNW 0.0 0.0
02:25 0.3 98.1 999.6 4.8 NW 10.5 NNW 0.0 0.0
02:30 0.7 98.7 999.5 6.4 NW 11.2 NW 0.0 0.0
02:35 0.9 98.3 999.5 7.0 NW 15.5 NW 0.0 0.0
02:40 1.1 97.6 999.5 6.2 NW 12.2 NW 0.0 0.1
02:45 1.3 97.1 999.4 5.8 NW 10.7 NW 0.0 0.0
02:50 1.5 96.1 999.3 4.0 WNW 10.0 NW 0.0 0.0
02:55 1.4 95.3 999.2 2.1 WNW 7.1 WSW 0.0 0.0
03:00 1.1 94.7 999.2 3.9 SW 9.5 SW 0.0 0.0
03:05 1.0 95.5 999.1 3.4 WSW 7.6 WNW 0.0 0.0
03:10 1.2 96.0 999.0 4.7 W 10.4 W 0.0 0.0
03:15 1.3 96.1 998.9 3.4 SW 9.5 W 0.0 0.0
03:20 1.4 95.9 998.8 3.6 SW 7.6 WSW 0.0 0.0
03:25 1.4 95.8 998.7 3.2 SSW 7.6 SSW 0.0 0.0
03:30 1.5 95.9 998.6 3.5 SW 7.1 S 0.0 0.0
03:35 1.4 95.9 998.6 3.5 WSW 7.2 SW 0.0 0.0
03:40 1.4 95.9 998.5 5.4 WNW 11.6 WNW 0.0 0.0
03:45 1.3 95.9 998.3 5.7 WNW 11.7 NW 0.0 0.0
03:50 1.3 95.9 998.3 4.5 WNW 9.2 W 0.0 0.0
03:55 1.4 95.7 998.4 5.5 NNW 10.3 N 0.0 0.0
04:00 1.5 95.4 998.4 6.1 NNW 12.2 NNW 0.0 0.0
04:05 1.5 95.2 998.4 5.2 NNW 8.8 NNW 0.0 0.0
04:10 1.5 95.0 998.4 7.5 NNW 11.3 NNW 0.0 0.0
04:15 1.6 94.8 998.4 6.1 NNW 9.6 NNW 0.0 0.0
04:20 1.5 94.7 998.3 6.4 NNW 11.3 NW 0.0 0.0
04:25 1.5 94.7 998.2 4.7 NNW 8.0 NNW 0.0 0.0
04:30 1.5 94.7 998.1 3.8 NNW 6.6 N 0.0 0.0
04:35 1.5 94.6 998.0 4.2 N 7.2 NNW 0.0 0.0
04:40 1.5 94.6 997.9 2.6 N 5.4 N 0.0 0.0
04:45 1.5 94.6 998.0 4.6 NNW 7.0 N 0.0 0.0
04:50 1.6 94.5 997.9 3.6 NW 5.7 NNW 0.0 0.0
04:55 1.6 94.3 997.7 3.5 NNW 5.6 NNW 0.0 0.0
05:00 1.5 94.2 997.7 5.3 NNW 8.1 NNW 0.0 0.0
05:05 1.5 94.0 997.6 6.4 NNW 11.3 NW 0.0 0.0
05:10 1.5 93.8 997.6 5.1 NW 8.6 NNW 0.0 0.0
05:15 1.5 93.8 997.7 2.0 WNW 5.0 NW 0.0 0.0
05:20 1.5 93.9 997.6 3.6 NW 6.2 NW 0.0 0.0
05:25 1.5 93.9 997.6 3.6 NW 6.1 NW 0.0 0.0
05:30 1.5 93.9 997.5 3.8 NW 8.4 NW 0.0 0.0
05:35 1.6 93.8 997.4 3.9 NNW 7.6 WNW 0.0 0.0
05:40 1.6 93.6 997.3 4.1 NW 11.4 WNW 0.0 0.0
05:45 1.5 93.0 997.4 5.3 NW 9.8 WNW 0.0 0.0
05:50 1.6 92.7 997.4 7.3 NW 13.7 NW 0.0 0.0
05:55 1.6 92.4 997.4 6.0 NW 11.4 NW 0.0 0.0
06:00 1.6 92.2 997.5 5.3 NW 8.6 W 0.0 0.0
06:05 1.7 91.8 997.6 4.6 NW 9.0 WNW 0.0 0.0
06:10 1.7 91.8 997.5 5.4 NNW 10.4 NNW 0.0 0.0
06:15 1.7 91.9 997.5 4.1 NNW 8.1 NW 0.0 0.0
06:20 1.7 91.8 997.5 5.1 NW 9.0 NW 0.0 0.0
06:25 1.8 91.7 997.4 2.5 W 5.7 W 0.0 0.0
06:30 1.8 91.8 997.3 4.3 NW 8.9 NW 0.0 0.0
06:35 1.8 91.4 997.2 5.2 NW 10.5 NNW 0.0 0.0
06:40 1.8 91.0 997.1 3.6 WNW 6.8 WSW 0.0 0.0
06:45 1.8 90.9 997.1 3.9 WNW 9.3 WNW 0.0 0.2
06:50 1.9 91.1 997.1 2.3 WNW 7.6 WNW 0.0 0.5
06:55 1.9 91.2 997.1 4.4 NW 8.3 NW 0.0 1.1
07:00 1.9 91.3 997.1 4.0 WNW 8.9 NW 0.0 1.5
07:05 1.9 91.5 997.0 3.9 WNW 7.2 W 0.0 2.8
07:10 1.9 91.5 997.1 5.6 NW 10.0 NW 0.0 4.3
07:15 1.9 91.6 997.1 5.0 NW 9.3 WNW 0.0 7.1
07:20 2.0 91.7 997.1 5.7 NW 14.8 WNW 0.0 8.8
07:25 2.1 91.4 997.0 8.6 NW 18.3 NW 0.0 10.3
07:30 2.1 91.1 997.1 3.9 W 9.5 WNW 0.0 17.3
07:35 2.1 91.0 997.0 3.7 WNW 8.9 WNW 0.0 22.0
07:40 2.2 91.1 996.9 2.8 W 7.3 W 0.0 24.6
07:45 2.2 91.2 997.0 3.1 WNW 6.8 W 0.0 24.9
07:50 2.3 91.4 997.0 4.0 NW 10.0 NW 0.0 25.6
07:55 2.3 91.4 997.1 5.7 WNW 10.5 N 0.0 27.1
08:00 2.3 91.3 997.1 7.1 NW 10.9 NW 0.0 29.6
08:05 2.3 91.3 997.1 7.8 NW 12.4 NW 0.0 32.4
08:10 2.4 91.5 997.1 6.8 NW 12.8 NNW 0.0 31.9
08:15 2.4 91.4 997.1 7.7 NW 15.4 NNW 0.0 28.8
08:20 2.4 91.0 997.2 8.9 NNW 14.1 NNW 0.0 25.0
08:25 2.3 90.5 997.2 6.8 N 10.8 N 0.0 24.9
08:30 2.4 90.7 997.2 6.6 N 12.5 NNE 0.0 28.2
08:35 2.3 90.2 997.2 5.6 NNE 10.7 NNE 0.0 29.4
08:40 2.3 90.1 997.2 3.5 NE 8.0 ENE 0.0 38.3
08:45 2.4 90.5 997.1 2.1 NE 5.6 NNE 0.0 46.8
08:50 2.4 90.1 997.0 2.6 NNE 4.2 N 0.0 45.4
08:55 2.4 89.3 997.0 2.7 N 5.6 NNE 0.0 55.6
09:00 2.4 88.9 997.0 4.9 N 7.6 N 0.0 67.2
09:05 2.4 88.7 996.9 4.4 NNE 6.9 NNE 0.0 63.3
09:10 2.5 89.1 996.9 2.8 NE 4.9 ENE 0.0 69.3
09:15 2.6 89.1 996.9 3.0 NE 5.9 NE 0.0 74.8
09:20 2.8 89.3 996.9 1.6 ENE 3.4 ENE 0.0 98.3
09:25 2.9 87.8 996.9 1.9 ENE 3.9 E 0.0 108.2
09:30 3.0 87.1 997.0 3.7 ESE 6.2 SE 0.0 101.8
09:35 3.0 86.2 997.0 2.7 NNE 4.8 NNE 0.0 90.2
09:40 3.1 86.1 997.1 2.2 E 4.3 ESE 0.0 78.9
09:45 3.2 86.0 997.1 2.1 SSE 4.2 S 0.0 82.1
09:50 3.3 85.7 997.2 4.1 S 6.4 S 0.0 84.4
09:55 3.4 85.3 997.3 4.6 WSW 8.4 W 0.0 74.3
10:00 3.3 84.9 997.3 3.5 SW 7.6 SSW 0.0 78.8
10:05 3.3 85.8 997.3 3.0 SW 8.7 SSW 0.0 90.3
10:10 3.4 85.3 997.2 3.4 SW 6.8 SSW 0.0 97.1
10:15 3.5 85.5 997.2 2.3 S 5.6 SW 0.0 94.1
10:20 3.7 85.7 997.2 1.6 SE 3.2 NW 0.0 100.0
10:25 3.9 84.9 997.2 2.6 NNW 6.8 NNE 0.0 109.8
10:30 3.9 84.2 997.1 5.0 N 7.5 N 0.0 120.2
10:35 3.9 84.4 997.0 4.8 N 7.7 N 0.0 133.4
10:40 3.9 84.2 996.9 4.5 N 6.5 NNE 0.0 151.2
10:45 4.0 84.0 996.9 3.6 NNE 8.4 N 0.0 144.2
10:50 4.1 83.5 996.9 4.9 NNE 8.9 N 0.0 131.7
10:55 4.1 83.2 996.9 4.1 NE 6.9 ENE 0.0 127.1
11:00 4.1 82.7 996.9 3.5 NNE 6.7 NNE 0.0 122.0
11:05 4.1 82.5 996.9 3.8 NNE 5.9 NE 0.0 126.5
11:10 4.3 83.0 996.8 1.8 NNE 4.2 NE 0.0 125.6
11:15 4.4 81.7 996.8 2.3 SSE 6.5 SSE 0.0 143.7
11:20 4.5 80.7 996.7 3.0 S 8.6 S 0.0 164.0
11:25 4.7 80.7 996.8 2.6 N 5.4 NNE 0.0 170.6
11:30 4.7 80.2 996.8 4.5 NW 8.3 NNW 0.0 158.2
11:35 4.7 80.2 996.8 3.8 NNW 5.8 NW 0.0 161.3
11:40 4.7 80.2 996.7 5.7 N 9.4 NNW 0.0 197.8
11:45 4.7 80.4 996.7 4.8 N 9.6 NNW 0.0 162.0
11:50 4.8 80.5 996.7 3.7 NNE 9.5 NNE 0.0 124.8
11:55 4.8 80.3 996.7 4.8 NE 8.4 ENE 0.0 121.1
12:00 4.8 80.3 996.7 5.2 NE 9.0 NNE 0.0 147.2
12:05 4.8 80.2 996.7 4.6 NE 10.9 NNE 0.0 145.0
12:10 5.0 80.2 996.7 5.0 NNE 11.9 NE 0.0 186.0
12:15 5.2 79.6 996.6 4.5 NNE 7.3 NE 0.0 388.7
12:20 5.8 77.2 996.5 5.8 NNE 11.2 NNE 0.0 536.4
12:25 6.0 75.5 996.5 5.8 NNE 10.3 NE 0.0 469.1
12:30 6.3 74.7 996.5 6.3 N 11.6 N 0.0 507.7
12:35 6.3 75.1 996.5 6.7 NNW 11.5 NNW 0.0 506.3
12:40 6.7 73.6 996.5 7.5 N 12.4 NW 0.0 444.4
12:45 6.4 73.8 996.5 7.0 NNE 12.8 N 0.0 443.6
12:50 6.6 74.3 996.4 10.5 N 18.3 N 0.0 443.1
12:55 6.4 73.5 996.3 7.3 NNW 15.2 NNW 0.0 443.5
13:00 6.8 73.3 996.3 8.8 N 14.3 N 0.0 603.4
13:10 6.5 72.3 996.1 9.3 N 16.5 NNE 0.0 343.9
13:15 6.5 71.0 996.0 8.7 N 14.0 NNW 0.0 331.4
13:20 6.7 72.1 995.9 5.4 NE 10.0 ENE 0.0 340.1
13:25 7.3 68.6 995.8 6.6 NE 16.6 NE 0.0 421.4
13:30 7.5 67.2 995.9 7.7 NE 17.4 N 0.0 417.7
13:35 7.6 65.5 995.8 8.2 NE 16.7 NNE 0.0 447.4
13:40 7.8 64.5 995.7 9.9 NE 24.1 NE 0.0 319.8
13:45 7.5 63.8 995.9 7.2 NNE 16.3 N 0.0 159.8
13:50 7.3 65.8 996.0 5.3 ENE 12.9 ENE 0.0 162.9
13:55 7.4 65.5 996.0 4.1 E 9.8 ESE 0.0 199.7
14:00 7.6 64.0 995.9 4.2 ESE 11.3 ESE 0.0 126.1
14:05 7.7 65.0 995.7 4.6 SSE 11.1 ESE 0.0 183.7
14:10 7.9 63.8 995.5 7.7 SSE 15.6 SSE 0.0 136.0
14:15 7.7 63.7 995.4 8.3 SSE 19.0 SSE 0.0 98.1
14:20 7.4 66.6 995.6 10.9 SSE 17.7 SSE 0.0 127.3
14:25 7.1 68.4 995.8 9.1 SSE 15.8 SSE 0.0 108.7
14:30 7.0 69.2 996.0 8.3 SSE 15.2 SE 0.0 127.8
14:35 6.9 69.7 996.1 7.8 SSE 11.8 SE 0.0 59.8
14:40 6.8 70.6 996.1 5.0 ESE 12.3 SE 0.0 62.6
14:45 6.7 69.7 996.2 2.9 ESE 7.1 SE 0.0 57.0
14:50 6.4 72.2 996.3 5.7 W 9.9 WNW 0.0 54.3
14:55 6.3 73.8 996.5 3.9 SW 8.9 WSW 0.0 59.4
15:00 6.4 69.9 996.5 4.9 SSW 8.7 SSW 0.0 67.9
15:05 6.6 70.4 996.6 2.6 SSW 5.9 WSW 0.0 67.5
15:10 6.5 72.2 996.6 3.4 SSW 6.0 SW 0.0 60.1
15:15 6.4 74.0 996.7 3.1 SSW 6.7 SW 0.0 53.4
15:20 6.3 75.5 996.7 1.5 SSW 3.9 SSW 0.0 43.3
15:25 6.1 76.2 996.8 2.1 SW 5.6 SW 0.0 37.5
15:30 5.9 76.4 996.9 1.8 WSW 5.0 W 0.0 34.4
15:35 5.8 76.2 996.9 1.3 W 4.6 NW 0.0 32.2
15:40 5.8 75.5 996.9 1.3 SSW 3.2 W 0.0 30.3
15:45 5.7 77.4 997.0 1.8 S 2.8 SE 0.0 29.3
15:50 5.6 79.5 997.0 1.8 SSE 3.7 SSE 0.0 26.2
15:55 5.3 80.0 997.1 2.2 ESE 4.0 ESE 0.0 22.1
16:00 5.1 80.9 997.1 2.7 SE 4.3 ESE 0.0 17.1
16:05 5.1 82.4 997.1 5.2 SSE 8.6 SE 0.0 10.4
16:10 5.1 82.2 997.2 5.1 SE 7.6 SE 0.0 7.4
16:15 5.0 83.0 997.2 4.6 SSE 7.4 SSE 0.0 5.8
16:20 5.1 82.1 997.2 6.0 SSE 8.1 SE 0.0 5.2
16:25 5.2 81.0 997.2 6.0 SSE 9.2 SE 0.0 3.5
16:30 5.2 80.8 997.2 6.0 SSE 10.2 SE 0.0 2.2
16:35 5.2 80.0 997.2 6.5 SSE 9.8 SSE 0.0 0.4
16:40 5.3 79.6 997.3 6.0 SSE 8.9 SSE 0.0 0.0
16:45 5.1 80.3 997.4 4.5 SSE 6.8 SE 0.0 0.0
16:50 5.1 80.9 997.4 4.5 S 8.4 S 0.0 0.0
16:55 5.3 78.7 997.5 4.0 SSE 6.8 SSE 0.0 0.0
17:00 5.1 79.3 997.5 4.2 S 8.3 S 0.0 0.0
17:05 4.7 81.6 997.5 2.7 SSE 5.0 SSE 0.0 0.0
17:10 4.5 82.7 997.7 2.7 S 7.1 SSW 0.0 0.0
17:15 4.4 83.7 997.8 1.8 SSW 8.1 SSW 0.0 0.1
17:20 4.3 84.0 997.8 1.7 S 3.2 SSW 0.0 0.0
17:25 4.2 84.7 997.9 0.9 ESE 1.9 S 0.0 0.0
17:30 3.9 85.6 997.9 1.6 WSW 3.7 WSW 0.0 0.0
17:35 3.8 86.2 997.9 2.7 SSE 5.2 SSW 0.0 0.0
17:40 3.7 87.1 997.9 2.4 ESE 5.6 SE 0.0 0.0
17:45 3.6 87.6 997.9 2.1 NW 5.2 NNW 0.0 0.0
17:50 3.7 86.3 997.9 2.8 SSW 5.5 SE 0.0 0.1
17:55 3.4 86.8 998.0 2.2 E 4.6 ENE 0.0 0.0
18:00 3.2 88.0 998.1 4.8 E 8.1 E 0.0 0.0
18:05 2.8 89.3 998.2 3.9 E 7.6 E 0.0 0.0
18:10 2.8 90.9 998.3 3.5 SE 6.0 SE 0.0 0.0
18:15 2.7 90.4 998.3 2.1 ESE 3.7 E 0.0 0.0
18:20 2.4 91.3 998.3 2.5 SSE 3.9 SE 0.0 0.0
18:25 2.3 91.9 998.3 2.0 SSE 3.4 SE 0.0 0.0
18:30 2.1 92.4 998.4 1.6 SE 3.3 ENE 0.0 0.0
18:35 1.9 92.8 998.5 2.0 E 3.3 ESE 0.0 0.0
18:40 1.8 93.6 998.5 3.5 ESE 8.1 E 0.0 0.0
18:45 1.7 94.1 998.6 5.2 ESE 9.9 E 0.0 0.0
18:50 1.6 94.3 998.6 3.3 SE 5.3 SE 0.0 0.0
18:55 1.6 94.5 998.6 2.5 ESE 4.0 ESE 0.0 0.0
19:00 1.5 94.7 998.7 3.0 ESE 5.4 E 0.0 0.0
19:05 1.4 94.8 998.8 2.7 SE 5.1 SE 0.0 0.0
19:10 1.2 94.8 998.8 1.9 SE 4.2 SE 0.0 0.0
19:15 1.1 95.0 998.7 2.2 SE 4.8 SE 0.0 0.0
19:20 0.9 95.1 998.7 2.0 SE 2.9 SE 0.0 0.0
19:25 0.8 95.3 998.7 2.4 ESE 3.3 ESE 0.0 0.0
19:30 0.6 95.5 998.8 5.2 E 7.4 ENE 0.0 0.0
19:35 0.5 95.8 998.9 3.4 E 6.9 E 0.0 0.0
19:40 0.5 96.2 998.9 2.2 SE 3.7 SE 0.0 0.0
19:45 0.4 96.1 998.9 3.2 SE 7.5 S 0.0 0.0
19:50 0.4 96.6 999.0 3.9 ESE 7.0 E 0.0 0.0
19:55 0.4 96.6 999.0 2.8 ESE 6.3 E 0.0 0.0
20:00 0.3 96.6 999.0 3.3 SSE 5.0 SE 0.0 0.0
20:05 0.1 96.6 999.0 2.9 SE 4.3 SE 0.0 0.0
20:10 0.1 96.8 999.2 3.0 E 5.3 E 0.0 0.0
20:15 0.0 96.9 999.3 4.4 E 6.6 E 0.0 0.0
20:20 0.0 97.1 999.2 4.0 SE 6.4 SSE 0.0 0.0
20:25 -0.1 97.0 999.3 3.4 SE 6.6 SSE 0.0 0.0
20:30 -0.3 96.8 999.3 3.4 E 4.9 ENE 0.0 0.0
20:35 -0.4 97.2 999.3 2.2 SE 3.3 SE 0.0 0.0
20:40 -0.4 97.4 999.3 2.2 ESE 3.6 E 0.0 0.0
20:45 -0.5 97.4 999.4 3.3 SE 5.0 SE 0.0 0.0
20:50 -0.7 97.3 999.4 4.6 E 10.0 E 0.0 0.0
20:55 -0.6 97.8 999.5 4.3 SE 9.8 E 0.0 0.0
21:00 -0.6 97.9 999.6 3.0 E 5.6 E 0.0 0.0
21:05 -0.5 98.0 999.6 2.6 SSE 4.2 SE 0.0 0.0
21:10 -0.6 98.0 999.6 3.5 SSE 5.0 SSE 0.0 0.0
Màxima 7.9 98.7 1001.0 10.9 SSE 24.1 NE 0.0 603.4
Mínima -0.7 63.7 995.4
Total 0.0